createdAt,value
2019-02-17T05:00:52.689Z,95.48
2019-02-17T05:01:51.431Z,95.22
2019-02-17T05:02:52.221Z,95.54
2019-02-17T05:03:52.656Z,95.22
2019-02-17T05:04:51.652Z,95.64
2019-02-17T05:05:51.845Z,95.96
2019-02-17T05:06:52.078Z,96.39
2019-02-17T05:07:52.257Z,97.86
2019-02-17T05:08:52.441Z,97.23
2019-02-17T05:09:52.727Z,96.81
2019-02-17T05:10:52.777Z,96.55
2019-02-17T05:11:52.973Z,96.59
2019-02-17T05:12:53.192Z,96.07
2019-02-17T05:13:53.401Z,95.64
2019-02-17T05:14:53.813Z,94.80
2019-02-17T05:15:53.769Z,95.22
2019-02-17T05:16:53.934Z,95.54
2019-02-17T05:17:54.168Z,95.43
2019-02-17T05:18:55.203Z,95.43
2019-02-17T05:19:54.458Z,94.80
2019-02-17T05:20:54.624Z,94.59
2019-02-17T05:21:54.807Z,94.17
2019-02-17T05:22:55.048Z,94.17
2019-02-17T05:23:55.209Z,94.27
2019-02-17T05:24:55.371Z,94.27
2019-02-17T05:25:55.624Z,93.96
2019-02-17T05:26:55.639Z,94.06
2019-02-17T05:27:55.820Z,93.43
2019-02-17T05:28:56.667Z,93.01
2019-02-17T05:29:57.171Z,92.37
2019-02-17T05:30:57.171Z,92.90
2019-02-17T05:31:56.520Z,92.58
2019-02-17T05:32:56.694Z,92.37
2019-02-17T05:33:56.778Z,92.41
2019-02-17T05:34:59.091Z,92.20
2019-02-17T05:35:58.178Z,91.53
2019-02-17T05:36:57.387Z,91.42
2019-02-17T05:37:57.436Z,91.57
2019-02-17T05:38:57.603Z,91.46
2019-02-17T05:39:57.878Z,91.63
2019-02-17T05:40:57.896Z,92.20
2019-02-17T05:41:58.149Z,91.99
2019-02-17T05:42:58.250Z,92.83
2019-02-17T05:43:58.518Z,93.37
2019-02-17T05:44:58.535Z,92.83
2019-02-17T05:45:58.643Z,92.41
2019-02-17T05:46:58.797Z,91.89
2019-02-17T05:47:59.007Z,90.94
2019-02-17T05:48:59.145Z,91.46
2019-02-17T05:49:59.311Z,91.25
2019-02-17T05:50:59.512Z,90.62
2019-02-17T05:51:59.678Z,91.30
2019-02-17T05:52:59.824Z,91.04
2019-02-17T05:53:59.955Z,91.57
2019-02-17T05:55:00.103Z,94.25
2019-02-17T05:56:00.330Z,95.79
2019-02-17T05:57:01.074Z,96.53
2019-02-17T05:58:00.696Z,96.00
2019-02-17T05:59:00.899Z,98.07
2019-02-17T06:00:01.101Z,98.60
2019-02-17T06:01:04.109Z,99.08
2019-02-17T06:02:02.470Z,99.30
2019-02-17T06:03:01.617Z,99.25
2019-02-17T06:04:01.757Z,99.25
2019-02-17T06:05:02.256Z,99.15
2019-02-17T06:06:02.950Z,99.99
2019-02-17T06:07:02.366Z,99.78
2019-02-17T06:08:02.542Z,98.89
2019-02-17T06:09:02.701Z,98.47
2019-02-17T06:10:02.890Z,98.25
2019-02-17T06:11:03.202Z,96.57
2019-02-17T06:12:03.226Z,95.83
2019-02-17T06:13:03.384Z,96.41
2019-02-17T06:14:03.530Z,96.78
2019-02-17T06:15:03.671Z,96.72
2019-02-17T06:16:03.828Z,95.14
2019-02-17T06:17:03.970Z,94.82
2019-02-17T06:18:04.086Z,94.19
2019-02-17T06:19:04.263Z,93.66
2019-02-17T06:20:04.567Z,94.61
2019-02-17T06:21:04.632Z,94.71
2019-02-17T06:22:04.759Z,95.98
2019-02-17T06:23:04.937Z,95.45
2019-02-17T06:24:05.133Z,94.71
2019-02-17T06:25:05.373Z,94.71
2019-02-17T06:26:05.594Z,94.82
2019-02-17T06:27:05.706Z,93.45
2019-02-17T06:28:05.847Z,94.19
2019-02-17T06:29:06.601Z,93.66
2019-02-17T06:30:06.144Z,94.08
2019-02-17T06:31:13.919Z,93.45
2019-02-17T06:32:08.533Z,93.55
2019-02-17T06:33:06.631Z,93.03
2019-02-17T06:34:06.882Z,92.40
2019-02-17T06:35:07.087Z,92.18
2019-02-17T06:36:07.211Z,92.29
2019-02-17T06:37:07.417Z,92.60
2019-02-17T06:38:07.560Z,91.97
2019-02-17T06:39:07.717Z,92.29
2019-02-17T06:40:07.846Z,92.18
2019-02-17T06:41:08.034Z,91.97
2019-02-17T06:42:08.171Z,92.76
2019-02-17T06:43:08.351Z,93.55
2019-02-17T06:44:08.490Z,93.45
2019-02-17T06:45:08.657Z,93.45
2019-02-17T06:46:08.804Z,93.34
2019-02-17T06:47:08.976Z,92.08
2019-02-17T06:48:09.112Z,92.08
2019-02-17T06:49:09.342Z,93.45
2019-02-17T06:50:09.502Z,92.82
2019-02-17T06:51:09.701Z,91.76
2019-02-17T06:52:09.852Z,90.92
2019-02-17T06:53:09.989Z,89.76
2019-02-17T06:54:10.181Z,89.65
2019-02-17T06:55:10.349Z,89.86
2019-02-17T06:56:12.514Z,89.65
2019-02-17T06:57:10.803Z,90.08
2019-02-17T06:58:10.967Z,90.08
2019-02-17T06:59:11.615Z,91.97
2019-02-17T07:00:11.420Z,92.82
2019-02-17T07:01:11.557Z,93.55
2019-02-17T07:02:11.693Z,94.29
2019-02-17T07:03:14.202Z,94.04
2019-02-17T07:04:12.284Z,93.30
2019-02-17T07:05:12.258Z,92.63
2019-02-17T07:06:12.481Z,92.10
2019-02-17T07:07:12.728Z,91.36
2019-02-17T07:08:12.789Z,90.94
2019-02-17T07:09:13.041Z,90.73
2019-02-17T07:10:13.221Z,90.20
2019-02-17T07:11:13.497Z,90.83
2019-02-17T07:12:13.509Z,91.15
2019-02-17T07:13:13.712Z,90.20
2019-02-17T07:14:13.848Z,89.36
2019-02-17T07:15:14.730Z,88.94
2019-02-17T07:16:14.301Z,89.04
2019-02-17T07:17:15.352Z,88.94
2019-02-17T07:18:14.615Z,88.62
2019-02-17T07:19:14.773Z,87.46
2019-02-17T07:20:14.992Z,87.46
2019-02-17T07:21:15.197Z,89.47
2019-02-17T07:22:16.184Z,90.20
2019-02-17T07:23:15.530Z,90.26
2019-02-17T07:24:15.525Z,91.22
2019-02-17T07:25:15.660Z,92.48
2019-02-17T07:26:17.248Z,94.86
2019-02-17T07:27:17.695Z,95.34
2019-02-17T07:28:16.653Z,94.29
2019-02-17T07:29:17.204Z,94.04
2019-02-17T07:30:16.414Z,92.77
2019-02-17T07:31:16.570Z,91.64
2019-02-17T07:32:16.775Z,90.17
2019-02-17T07:33:17.007Z,89.77
2019-02-17T07:34:17.302Z,87.99
2019-02-17T07:35:17.271Z,87.07
2019-02-17T07:36:17.472Z,87.13
2019-02-17T07:37:19.334Z,86.46
2019-02-17T07:38:18.848Z,84.64
2019-02-17T07:39:18.006Z,85.24
2019-02-17T07:40:18.261Z,84.67
2019-02-17T07:41:18.320Z,81.67
2019-02-17T07:42:18.435Z,80.06
2019-02-17T07:43:18.618Z,79.78
2019-02-17T07:44:18.704Z,78.07
2019-02-17T07:45:18.841Z,76.54
2019-02-17T07:46:19.155Z,75.22
2019-02-17T07:47:19.184Z,74.21
2019-02-17T07:48:20.332Z,72.69
2019-02-17T07:49:19.630Z,70.86
2019-02-17T07:50:19.793Z,68.82
2019-02-17T07:51:19.936Z,66.78
2019-02-17T07:52:20.686Z,65.41
2019-02-17T07:53:20.999Z,64.65
2019-02-17T07:54:21.627Z,64.18
2019-02-17T07:55:20.794Z,63.12
2019-02-17T07:56:21.055Z,63.37
2019-02-17T07:57:22.296Z,59.88
2019-02-17T07:58:22.320Z,60.10
2019-02-17T07:59:21.525Z,56.00
2019-02-17T08:00:21.696Z,54.00
2019-02-17T08:01:21.826Z,53.74
2019-02-17T08:02:22.079Z,49.99
2019-02-17T08:03:22.141Z,49.31
2019-02-17T08:04:22.388Z,48.88
2019-02-17T08:05:22.545Z,47.42
2019-02-17T08:06:22.720Z,43.88
2019-02-17T08:07:22.874Z,43.84
2019-02-17T08:08:22.995Z,44.12
2019-02-17T08:09:23.139Z,43.16
2019-02-17T08:10:23.286Z,43.90
2019-02-17T08:11:25.825Z,44.28
2019-02-17T08:12:23.579Z,44.71
2019-02-17T08:13:23.801Z,46.39
2019-02-17T08:14:24.111Z,44.96
2019-02-17T08:15:24.107Z,45.80
2019-02-17T08:16:24.343Z,47.15
2019-02-17T08:17:24.495Z,47.15
2019-02-17T08:18:25.231Z,46.64
2019-02-17T08:19:25.754Z,48.30
2019-02-17T08:20:25.661Z,48.40
2019-02-17T08:21:25.182Z,48.30
2019-02-17T08:22:25.374Z,47.17
2019-02-17T08:23:25.492Z,48.50
2019-02-17T08:24:25.796Z,48.25
2019-02-17T08:25:25.846Z,48.84
2019-02-17T08:26:26.115Z,47.27
2019-02-17T08:27:26.200Z,45.79
2019-02-17T08:28:26.342Z,45.89
2019-02-17T08:29:26.503Z,45.26
2019-02-17T08:30:26.969Z,46.48
2019-02-17T08:31:26.884Z,45.26
2019-02-17T08:32:27.005Z,43.61
2019-02-17T08:33:27.216Z,44.10
2019-02-17T08:34:27.473Z,43.26
2019-02-17T08:35:27.612Z,43.79
2019-02-17T08:36:27.756Z,43.87
2019-02-17T08:37:27.986Z,42.74
2019-02-17T08:38:28.124Z,43.98
2019-02-17T08:39:28.262Z,43.67
2019-02-17T08:40:28.464Z,43.06
2019-02-17T08:41:28.688Z,40.60
2019-02-17T08:42:29.014Z,39.54
2019-02-17T08:43:29.087Z,41.99
2019-02-17T08:44:29.158Z,37.54
2019-02-17T08:45:29.367Z,37.79
2019-02-17T08:46:29.563Z,33.67
2019-02-17T08:47:29.769Z,35.17
2019-02-17T08:48:29.929Z,34.54
2019-02-17T08:49:30.179Z,32.60
2019-02-17T08:50:30.226Z,31.39
2019-02-17T08:51:30.560Z,34.92
2019-02-17T08:52:30.771Z,33.39
2019-02-17T08:53:30.838Z,35.41
2019-02-17T08:54:31.077Z,35.35
2019-02-17T08:55:31.222Z,35.48
2019-02-17T08:56:31.550Z,35.26
2019-02-17T08:57:31.628Z,37.28
2019-02-17T08:58:31.786Z,35.28
2019-02-17T08:59:31.942Z,37.13
2019-02-17T09:15:35.955Z,33.64
2019-02-17T09:16:38.443Z,34.23
2019-02-17T09:17:38.424Z,34.75
2019-02-17T09:18:38.025Z,35.65
2019-02-17T09:19:38.953Z,35.03
2019-02-17T09:20:37.847Z,35.31
2019-02-17T09:21:38.520Z,35.92
2019-02-17T09:22:38.143Z,32.37
2019-02-17T09:23:38.288Z,30.94
2019-02-17T09:24:38.415Z,31.13
2019-02-17T09:25:38.610Z,33.33
2019-02-17T09:26:38.711Z,33.33
2019-02-17T09:27:38.854Z,30.80
2019-02-17T10:10:21.540Z,35.78
2019-02-17T10:11:21.717Z,35.28
2019-02-17T10:12:33.299Z,33.55
2019-02-17T10:13:24.316Z,34.16
2019-02-17T10:14:23.942Z,36.05
2019-02-17T10:15:51.535Z,32.12
2019-02-17T10:16:24.103Z,33.91
2019-02-17T10:17:25.005Z,30.68
2019-02-17T10:18:25.431Z,31.88
2019-02-17T10:19:25.500Z,32.67
2019-02-17T10:20:24.784Z,30.76
2019-02-17T10:21:25.204Z,28.22
2019-02-17T10:22:24.989Z,29.72
2019-02-17T10:23:25.019Z,29.02
2019-02-17T10:24:25.215Z,28.09
2019-02-17T10:25:26.125Z,28.39
2019-02-17T10:26:25.778Z,26.89
2019-02-17T10:27:26.977Z,27.39
2019-02-17T10:28:26.596Z,26.40
2019-02-17T10:29:27.142Z,28.50
2019-02-17T10:30:27.002Z,29.69
2019-02-17T10:31:26.558Z,30.01
2019-02-17T10:32:36.305Z,27.51
2019-02-17T10:33:28.052Z,27.01
2019-02-17T10:37:11.426Z,28.58
2019-02-17T10:38:12.267Z,27.97
2019-02-17T10:39:14.842Z,25.68
2019-02-17T10:40:35.409Z,27.09
2019-02-17T10:41:19.320Z,29.00
2019-02-17T10:46:00.881Z,25.70
2019-02-17T10:47:00.974Z,27.71
2019-02-17T10:48:23.015Z,27.21
2019-02-17T10:49:04.988Z,27.42
2019-02-17T10:50:04.164Z,28.52
2019-02-17T10:51:03.641Z,28.44
2019-02-17T10:52:08.582Z,28.72
2019-02-17T10:53:14.964Z,26.65
2019-02-17T10:54:11.428Z,28.66
2019-02-17T10:55:11.066Z,28.66
2019-02-17T10:56:04.737Z,29.48
2019-02-17T10:57:04.274Z,29.08
2019-02-17T10:58:05.173Z,30.57
2019-02-17T10:59:59.464Z,28.96
2019-02-17T11:30:50.114Z,27.70
2019-02-17T11:31:59.705Z,28.30
2019-02-17T11:33:01.559Z,28.70
2019-02-17T11:33:52.710Z,29.50
2019-02-17T11:34:51.663Z,28.09
2019-02-17T11:35:52.191Z,28.58
2019-02-17T11:36:51.739Z,28.09
2019-02-17T11:37:51.855Z,29.19
2019-02-17T11:38:52.165Z,32.89
2019-02-17T11:39:52.325Z,28.98
2019-02-17T11:40:52.478Z,31.10
2019-02-17T11:41:52.657Z,28.69
2019-02-17T11:42:52.842Z,30.50
2019-02-17T11:43:52.990Z,30.80
2019-02-17T11:44:53.137Z,31.41
2019-02-17T11:45:53.312Z,31.31
2019-02-17T11:46:53.466Z,31.23
2019-02-17T11:47:53.631Z,32.30
2019-02-17T11:48:53.778Z,30.31
2019-02-17T11:49:53.959Z,30.30
2019-02-17T11:50:54.068Z,32.60
2019-02-17T11:51:54.311Z,34.17
2019-02-17T11:52:54.509Z,30.45
2019-02-17T11:53:54.614Z,29.65
2019-02-17T11:54:54.782Z,29.05
2019-02-17T11:55:55.015Z,29.14
2019-02-17T11:56:55.257Z,30.47
2019-02-17T11:57:55.341Z,30.47
2019-02-17T11:58:55.521Z,30.48
2019-02-17T11:59:55.629Z,31.00
2019-02-17T12:00:55.861Z,33.20
2019-02-17T12:01:56.029Z,34.78
2019-02-17T12:02:56.250Z,33.06
2019-02-17T12:03:56.460Z,29.53
2019-02-17T12:04:56.652Z,31.64
2019-02-17T12:05:56.960Z,27.44
2019-02-17T12:06:56.991Z,29.24
2019-02-17T12:07:57.180Z,29.64
2019-02-17T12:08:57.466Z,28.64
2019-02-17T12:09:57.601Z,30.24
2019-02-17T12:10:57.788Z,28.22
2019-02-17T12:11:58.055Z,29.02
2019-02-17T12:12:58.293Z,25.92
2019-02-17T12:13:58.621Z,27.92
2019-02-17T12:14:58.748Z,29.03
2019-02-17T12:15:58.777Z,28.05
2019-02-17T12:16:59.309Z,31.15
2019-02-17T12:17:59.430Z,28.64
2019-02-17T12:19:00.528Z,30.43
2019-02-17T12:20:00.305Z,27.01
2019-02-17T12:20:59.793Z,25.60
2019-02-17T12:21:59.986Z,24.99
2019-02-17T12:23:00.168Z,26.50
2019-02-17T12:24:02.145Z,29.08
2019-02-17T12:25:00.359Z,25.07
2019-02-17T12:26:00.562Z,26.57
2019-02-17T12:27:00.700Z,27.06
2019-02-17T12:28:00.913Z,28.94
2019-02-17T12:29:01.060Z,23.13
2019-02-17T12:30:01.243Z,24.62
2019-02-17T12:31:01.446Z,24.29
2019-02-17T12:32:01.587Z,21.69
2019-02-17T12:33:01.751Z,21.48
2019-02-17T12:34:01.921Z,21.58
2019-02-17T12:35:02.103Z,21.08
2019-02-17T12:36:02.273Z,21.77
2019-02-17T12:37:02.403Z,22.07
2019-02-17T12:38:02.545Z,21.97
2019-02-17T12:39:02.669Z,21.36
2019-02-17T12:40:02.904Z,23.25
2019-02-17T12:41:03.147Z,21.34
2019-02-17T12:42:03.319Z,22.31
2019-02-17T12:43:03.456Z,21.03
2019-02-17T12:44:03.617Z,19.71
2019-02-17T12:45:03.774Z,19.09
2019-02-17T13:06:22.286Z,17.50
2019-02-17T13:07:24.413Z,16.02
2019-02-17T13:08:23.764Z,16.61
2019-02-17T13:09:24.197Z,15.81
2019-02-17T13:10:24.289Z,15.50
2019-02-17T13:11:24.354Z,15.79
2019-02-17T13:12:24.749Z,14.91
2019-02-17T13:13:24.997Z,14.63
2019-02-17T13:14:24.914Z,15.14
2019-02-17T13:15:25.495Z,18.58
2019-02-17T13:16:25.593Z,15.55
2019-02-17T13:17:26.845Z,16.57
2019-02-17T13:18:25.690Z,18.67
2019-02-17T13:19:26.432Z,19.07
2019-02-17T13:20:26.339Z,17.78
2019-02-17T13:21:26.419Z,17.86
2019-02-17T13:22:26.984Z,19.07
2019-02-17T13:23:26.490Z,18.37
2019-02-17T13:24:27.677Z,18.26
2019-02-17T13:25:29.358Z,18.69
2019-02-17T13:26:26.914Z,17.69
2019-02-17T13:27:27.025Z,18.10
2019-02-17T13:28:27.342Z,17.51
2019-02-17T13:29:27.638Z,17.70
2019-02-17T13:30:27.631Z,17.90
2019-02-17T13:31:27.959Z,17.40
2019-02-17T13:32:28.005Z,18.37
2019-02-17T13:33:38.299Z,19.95
2019-02-17T13:34:29.487Z,17.68
2019-02-17T13:35:28.396Z,17.79
2019-02-17T13:36:30.211Z,18.68
2019-02-17T13:37:30.290Z,17.61
2019-02-17T13:38:28.903Z,19.79
2019-02-17T13:39:29.343Z,17.71
2019-02-17T13:40:29.540Z,18.88
2019-02-17T13:41:29.766Z,18.90
2019-02-17T13:42:30.532Z,18.73
2019-02-17T13:43:30.421Z,19.03
2019-02-17T13:44:30.992Z,18.16
2019-02-17T13:45:30.441Z,18.98
2019-02-17T13:46:31.228Z,18.98
2019-02-17T13:47:30.884Z,19.27
2019-02-17T13:48:31.011Z,18.57
2019-02-17T13:49:31.230Z,19.59
2019-02-17T13:50:31.279Z,19.60
2019-02-17T13:51:31.617Z,19.68
2019-02-17T13:52:32.201Z,19.98
2019-02-17T13:53:34.056Z,19.58
2019-02-17T13:54:33.235Z,23.16
2019-02-17T13:55:32.654Z,21.46
2019-02-17T13:56:32.530Z,19.87
2019-02-17T13:57:33.679Z,19.29
2019-02-17T13:58:32.763Z,19.79
2019-02-17T13:59:33.166Z,20.15
2019-02-17T14:00:33.254Z,21.74
2019-02-17T14:01:33.433Z,25.43
2019-02-17T14:02:33.553Z,21.34
2019-02-17T14:03:33.845Z,20.47
